createdAt,value
2022-11-03T04:58:36.233Z,7.87
2022-11-03T05:01:39.778Z,7.84
2022-11-03T05:04:42.903Z,7.85
2022-11-03T05:07:48.387Z,7.83
2022-11-03T05:10:50.945Z,7.84
2022-11-03T05:13:53.784Z,7.87
2022-11-03T05:16:57.102Z,7.85
2022-11-03T05:20:02.992Z,7.82
2022-11-03T05:23:06.301Z,7.76
2022-11-03T05:26:18.119Z,7.69
2022-11-03T05:29:35.715Z,7.69
2022-11-03T05:32:38.469Z,7.63
2022-11-03T05:35:43.118Z,7.59
2022-11-03T05:38:46.029Z,7.58
2022-11-03T05:41:48.657Z,7.59
2022-11-03T05:44:51.918Z,7.60
2022-11-03T05:47:55.825Z,7.62
2022-11-03T05:51:00.554Z,7.60
2022-11-03T05:54:05.898Z,7.59
2022-11-03T05:57:11.881Z,7.59
2022-11-03T06:00:48.177Z,7.58
2022-11-03T06:03:52.114Z,7.61
2022-11-03T06:06:59.147Z,7.69
2022-11-03T06:10:01.930Z,7.76
2022-11-03T06:13:27.237Z,7.78
2022-11-03T06:16:32.679Z,7.80
2022-11-03T06:19:42.168Z,7.87
2022-11-03T06:22:45.699Z,7.95
2022-11-03T06:25:48.992Z,8.06
2022-11-03T06:28:51.703Z,8.18
2022-11-03T06:31:58.065Z,8.27
2022-11-03T06:35:01.211Z,8.37
2022-11-03T06:38:05.544Z,8.52
2022-11-03T06:41:20.930Z,8.73
2022-11-03T06:44:26.168Z,8.87
2022-11-03T06:47:29.658Z,8.99
2022-11-03T06:50:33.159Z,9.14
2022-11-03T06:53:36.765Z,9.30
2022-11-03T06:56:39.538Z,9.47
2022-11-03T06:59:42.463Z,9.65
2022-11-03T07:03:08.147Z,9.81
2022-11-03T07:06:11.291Z,10.01
2022-11-03T07:09:22.890Z,10.06
2022-11-03T07:12:25.722Z,10.19
2022-11-03T07:15:32.204Z,10.35
2022-11-03T07:18:40.819Z,10.38
2022-11-03T07:21:56.560Z,10.32
2022-11-03T07:25:03.984Z,10.17
2022-11-03T07:28:06.666Z,10.23
2022-11-03T07:31:36.015Z,10.35
2022-11-03T07:34:38.448Z,10.57
2022-11-03T07:37:41.389Z,10.81
2022-11-03T07:40:44.081Z,11.00
2022-11-03T07:44:00.956Z,11.12
2022-11-03T07:47:03.395Z,11.24
2022-11-03T07:50:14.891Z,11.35
2022-11-03T07:53:26.248Z,11.44
2022-11-03T07:56:34.200Z,11.47
2022-11-03T07:59:43.620Z,11.51
2022-11-03T08:02:52.848Z,11.64
2022-11-03T08:05:55.680Z,11.54
2022-11-03T08:08:58.270Z,11.66
2022-11-03T08:12:01.395Z,11.72
2022-11-03T08:15:04.095Z,11.69
2022-11-03T08:18:06.895Z,11.82
2022-11-03T08:21:09.660Z,11.78
2022-11-03T08:24:12.501Z,11.84
2022-11-03T08:27:15.036Z,11.83
2022-11-03T08:30:17.988Z,11.75
2022-11-03T08:33:20.545Z,11.73
2022-11-03T08:36:23.428Z,11.78
2022-11-03T08:39:25.981Z,11.75
2022-11-03T08:42:28.756Z,11.88
2022-11-03T08:45:31.372Z,11.77
2022-11-03T08:48:34.401Z,11.69
2022-11-03T08:51:41.424Z,11.82
2022-11-03T08:54:49.119Z,11.96
2022-11-03T08:57:51.854Z,12.05
2022-11-03T09:00:54.691Z,12.05
2022-11-03T09:03:57.207Z,11.94
2022-11-03T09:07:00.191Z,11.99
2022-11-03T09:13:20.878Z,11.89
2022-11-03T09:16:23.350Z,11.96
2022-11-03T09:19:26.299Z,12.06
2022-11-03T09:22:28.981Z,11.73
2022-11-03T09:25:31.796Z,11.85
2022-11-03T09:28:34.259Z,11.71
2022-11-03T09:31:37.030Z,11.70
2022-11-03T09:34:39.483Z,11.93
2022-11-03T09:37:42.242Z,11.96
2022-11-03T09:40:45.029Z,12.18
2022-11-03T09:43:48.598Z,12.18
2022-11-03T09:46:55.426Z,12.29
2022-11-03T09:50:05.109Z,12.32
2022-11-03T09:53:12.125Z,12.28
2022-11-03T09:56:18.225Z,12.15
2022-11-03T09:59:22.873Z,12.20
2022-11-03T10:02:31.506Z,12.17
2022-11-03T10:05:34.643Z,12.22
2022-11-03T10:08:39.945Z,12.11
2022-11-03T10:11:43.854Z,12.07
2022-11-03T10:14:47.374Z,11.97
2022-11-03T10:17:51.308Z,12.07
2022-11-03T10:20:53.731Z,12.16
2022-11-03T10:23:56.631Z,12.07
2022-11-03T10:26:59.144Z,11.97
2022-11-03T10:30:07.979Z,11.92
2022-11-03T10:33:26.024Z,11.81
2022-11-03T10:36:31.555Z,11.79
2022-11-03T10:39:34.015Z,11.58
2022-11-03T10:42:36.841Z,11.73
2022-11-03T10:45:39.352Z,11.80
2022-11-03T10:48:42.247Z,11.76
2022-11-03T10:51:48.934Z,11.66
2022-11-03T10:54:53.635Z,11.54
2022-11-03T10:57:58.511Z,11.72
2022-11-03T11:01:01.427Z,11.56
2022-11-03T11:04:04.664Z,11.66
2022-11-03T11:07:24.923Z,11.71
2022-11-03T11:10:30.286Z,11.74
2022-11-03T11:13:33.073Z,11.75
2022-11-03T11:16:49.987Z,11.76
2022-11-03T11:20:31.615Z,11.86
2022-11-03T11:23:34.049Z,11.90
2022-11-03T11:26:37.971Z,11.86
2022-11-03T11:29:40.867Z,11.78
2022-11-03T11:32:46.389Z,11.79
2022-11-03T11:35:48.838Z,11.80
2022-11-03T11:38:52.373Z,11.81
2022-11-03T11:42:17.558Z,11.99
2022-11-03T11:45:58.619Z,12.07
2022-11-03T11:49:03.996Z,12.01
2022-11-03T11:52:10.553Z,11.92
2022-11-03T11:55:39.270Z,12.11
2022-11-03T11:58:46.467Z,12.09
2022-11-03T12:01:52.031Z,12.05
2022-11-03T12:05:03.713Z,12.06
2022-11-03T12:08:21.067Z,12.13
2022-11-03T12:11:55.409Z,12.18
2022-11-03T12:14:58.769Z,12.24
2022-11-03T12:18:38.108Z,12.07
2022-11-03T12:21:50.211Z,12.02
2022-11-03T12:25:00.821Z,12.05
2022-11-03T12:28:03.562Z,12.10
2022-11-03T12:31:06.479Z,12.20
2022-11-03T12:34:08.954Z,12.08
2022-11-03T12:37:12.435Z,11.92
2022-11-03T12:40:15.077Z,12.01
2022-11-03T12:43:17.830Z,11.96
2022-11-03T12:46:22.278Z,12.05
2022-11-03T12:49:25.279Z,11.99
2022-11-03T12:52:27.797Z,11.87
2022-11-03T12:55:30.596Z,11.92
2022-11-03T12:58:33.229Z,11.92
2022-11-03T13:01:36.347Z,12.05
2022-11-03T13:04:39.128Z,12.08
2022-11-03T13:07:43.206Z,11.89
2022-11-03T13:10:45.694Z,11.85
2022-11-03T13:13:48.381Z,11.72
2022-11-03T13:16:50.890Z,11.69
2022-11-03T13:19:54.879Z,11.60
2022-11-03T13:22:57.364Z,11.63
2022-11-03T13:26:00.211Z,11.53
2022-11-03T13:29:02.901Z,11.59
2022-11-03T13:32:06.098Z,11.58
2022-11-03T13:35:13.793Z,11.66
2022-11-03T13:38:16.885Z,11.67
2022-11-03T13:41:19.590Z,11.55
2022-11-03T13:44:22.706Z,11.62
2022-11-03T13:47:34.339Z,11.42
2022-11-03T13:50:50.906Z,11.39
2022-11-03T14:00:38.752Z,11.35
2022-11-03T14:07:05.573Z,11.09
2022-11-03T14:10:08.594Z,11.13
2022-11-03T14:13:11.776Z,11.20
2022-11-03T14:16:14.513Z,11.11
2022-11-03T14:19:17.044Z,11.01
2022-11-03T14:22:24.197Z,11.06
2022-11-03T14:25:26.605Z,11.12
2022-11-03T14:28:29.318Z,11.04
2022-11-03T14:31:32.353Z,11.00
2022-11-03T14:34:35.405Z,11.10
2022-11-03T14:37:38.722Z,11.11
2022-11-03T14:41:00.114Z,11.02
2022-11-03T14:44:03.439Z,11.07
2022-11-03T14:47:09.104Z,11.04
2022-11-03T14:50:11.597Z,11.05
2022-11-03T14:53:14.626Z,11.16
2022-11-03T14:56:17.093Z,11.14
2022-11-03T14:59:20.898Z,11.08
2022-11-03T15:02:23.449Z,11.03
2022-11-03T15:05:44.523Z,10.98
2022-11-03T15:08:50.762Z,10.90
2022-11-03T15:11:56.425Z,10.70
2022-11-03T15:14:59.080Z,10.75
2022-11-03T15:18:03.731Z,10.51
2022-11-03T15:21:06.564Z,10.37
2022-11-03T15:27:32.116Z,10.16
2022-11-03T15:30:35.489Z,10.08
2022-11-03T15:33:38.076Z,10.03
2022-11-03T15:36:40.816Z,9.80
2022-11-03T15:39:43.402Z,9.81
2022-11-03T15:42:46.557Z,9.77
2022-11-03T15:45:49.019Z,9.62
2022-11-03T15:48:54.453Z,9.57
2022-11-03T15:51:57.055Z,9.58
2022-11-03T15:54:59.929Z,9.52
2022-11-03T15:58:02.615Z,9.44
2022-11-03T16:01:05.579Z,9.40
2022-11-03T16:04:08.874Z,9.28
2022-11-03T16:07:11.481Z,9.35
2022-11-03T16:10:14.556Z,9.22
2022-11-03T16:13:17.205Z,9.25
2022-11-03T16:16:20.658Z,9.26
2022-11-03T16:19:23.464Z,9.22
2022-11-03T16:22:26.348Z,9.20
2022-11-03T16:25:29.393Z,9.13
2022-11-03T16:28:32.352Z,9.08
2022-11-03T16:31:35.887Z,9.11
2022-11-03T16:34:38.785Z,8.98
2022-11-03T16:37:41.535Z,9.01
2022-11-03T16:40:45.231Z,8.96
2022-11-03T16:43:49.743Z,9.02
2022-11-03T16:46:52.765Z,9.04
2022-11-03T16:49:58.445Z,9.08
2022-11-03T16:53:02.142Z,9.10
2022-11-03T16:56:05.430Z,9.21
